Time;durP1;ratioP1;P1;durP2;ratioP2;P2;SDS_P1;SDS_P2;PMS_P1;PMS_P2;Temp;Humidity;BMP_temperature;BMP_pressure;BME280_temperature;BME280_humidity;BME280_pressure;Samples;Min_cycle;Max_cycle;Signal;HPM_P1;HPM_P2
2021/01/08 00:01:52;;;;;;;12.65;8.82;;;20.10;51.20;;;;;;5082265;28;20021;-52
2021/01/08 00:04:20;;;;;;;11.68;9.05;;;20.20;51.30;;;;;;5081280;28;20365;-52
2021/01/08 00:06:46;;;;;;;8.80;7.85;;;20.10;51.30;;;;;;5077519;28;20024;-52
2021/01/08 00:09:12;;;;;;;9.25;7.63;;;20.10;51.40;;;;;;5083630;28;20058;-52
2021/01/08 00:11:37;;;;;;;10.05;8.10;;;20.10;51.40;;;;;;5077173;28;20130;-52
2021/01/08 00:14:04;;;;;;;9.32;8.13;;;20.00;51.40;;;;;;5084255;28;20095;-53
2021/01/08 00:16:34;;;;;;;11.15;7.95;;;20.10;51.50;;;;;;5081282;28;20024;-52
2021/01/08 00:19:03;;;;;;;9.18;6.20;;;20.00;51.50;;;;;;5081661;28;20151;-52
2021/01/08 00:21:42;;;;;;;11.98;7.30;;;20.00;51.60;;;;;;5088012;28;20854;-53
2021/01/08 00:24:12;;;;;;;9.98;7.22;;;20.00;51.70;;;;;;5071211;28;20034;-53
2021/01/08 00:26:40;;;;;;;8.63;6.50;;;20.00;51.60;;;;;;5065099;28;20028;-52
2021/01/08 00:29:10;;;;;;;9.98;6.28;;;20.00;51.70;;;;;;5076024;28;20387;-53
2021/01/08 00:31:47;;;;;;;8.20;6.38;;;20.00;51.70;;;;;;5084386;28;20077;-53
2021/01/08 00:34:18;;;;;;;8.82;6.07;;;19.90;51.70;;;;;;5084509;28;20363;-53
2021/01/08 00:36:49;;;;;;;6.90;5.47;;;20.00;51.90;;;;;;5091724;28;20448;-53
2021/01/08 00:39:15;;;;;;;7.28;5.53;;;19.90;51.80;;;;;;5086998;28;20061;-53
2021/01/08 00:41:41;;;;;;;12.02;5.35;;;19.90;51.80;;;;;;5066264;28;20478;-53
2021/01/08 00:44:07;;;;;;;12.32;6.57;;;19.90;51.80;;;;;;5062103;28;20040;-52
2021/01/08 00:46:38;;;;;;;10.18;5.55;;;19.90;51.90;;;;;;5066016;28;20028;-53
2021/01/08 00:49:05;;;;;;;;;;;19.90;52.00;;;;;;5088547;28;20911;-53
2021/01/08 00:51:32;;;;;;;8.32;4.88;;;19.90;51.90;;;;;;5087629;28;19916;-53
2021/01/08 00:53:58;;;;;;;7.72;5.32;;;19.90;51.70;;;;;;5085875;28;20047;-52
2021/01/08 00:56:24;;;;;;;12.32;5.45;;;19.90;51.70;;;;;;5064153;28;20032;-53
2021/01/08 00:58:56;;;;;;;6.57;4.95;;;19.90;51.70;;;;;;5074048;28;20036;-53
2021/01/08 01:01:23;;;;;;;6.65;5.40;;;19.80;51.70;;;;;;5084227;28;20508;-53
2021/01/08 01:03:49;;;;;;;8.23;5.22;;;19.80;51.80;;;;;;5086985;28;20106;-53
2021/01/08 01:06:26;;;;;;;7.20;4.53;;;19.80;51.80;;;;;;5086404;28;20036;-53
2021/01/08 01:08:53;;;;;;;7.72;4.97;;;19.70;51.80;;;;;;5080720;28;20127;-52
2021/01/08 01:11:21;;;;;;;8.98;4.72;;;19.80;51.90;;;;;;5078270;28;20027;-52
2021/01/08 01:13:48;;;;;;;6.72;4.22;;;19.70;51.80;;;;;;5059321;28;20367;-52
2021/01/08 01:16:15;;;;;;;6.75;4.30;;;19.80;51.90;;;;;;5079257;28;20051;-54
2021/01/08 01:18:42;;;;;;;6.95;4.82;;;19.70;51.80;;;;;;5078182;28;20060;-54
2021/01/08 01:21:08;;;;;;;5.82;4.07;;;19.70;51.90;;;;;;5076582;28;20031;-51
2021/01/08 01:23:35;;;;;;;4.70;3.95;;;19.70;51.90;;;;;;5088851;28;20112;-52
2021/01/08 01:26:01;;;;;;;6.18;4.40;;;19.70;51.90;;;;;;5076129;28;20038;-53
2021/01/08 01:28:27;;;;;;;4.75;3.90;;;19.70;51.90;;;;;;5089225;28;20024;-52
2021/01/08 01:30:53;;;;;;;4.93;3.90;;;19.70;51.90;;;;;;5082228;28;20035;-52
2021/01/08 01:33:19;;;;;;;4.70;3.75;;;19.70;52.00;;;;;;5085315;28;20020;-53
2021/01/08 01:35:45;;;;;;;5.53;4.40;;;19.70;52.00;;;;;;5081976;28;20357;-53
2021/01/08 01:38:11;;;;;;;4.43;3.42;;;19.70;52.10;;;;;;5085914;28;20036;-53
2021/01/08 01:40:37;;;;;;;4.97;3.60;;;19.70;52.10;;;;;;5086709;28;20028;-53
2021/01/08 01:43:03;;;;;;;5.05;3.80;;;19.70;52.10;;;;;;5081653;28;20040;-53
2021/01/08 01:45:29;;;;;;;6.03;4.07;;;19.70;52.70;;;;;;5080748;28;20373;-53
2021/01/08 01:47:55;;;;;;;5.00;3.80;;;19.70;52.10;;;;;;5088167;28;20028;-53
2021/01/08 01:50:22;;;;;;;3.20;2.85;;;19.60;52.20;;;;;;5077610;28;20040;-53
2021/01/08 01:52:48;;;;;;;4.20;2.90;;;19.60;52.30;;;;;;5080575;28;20471;-53
2021/01/08 01:55:14;;;;;;;2.78;2.47;;;19.60;52.30;;;;;;5080820;28;20030;-52
2021/01/08 01:57:43;;;;;;;3.28;2.85;;;19.60;52.30;;;;;;5088168;28;20758;-52
2021/01/08 02:00:10;;;;;;;4.93;3.03;;;19.60;52.30;;;;;;5083201;28;20082;-52
2021/01/08 02:02:51;;;;;;;5.43;2.65;;;19.60;52.30;;;;;;5078755;28;20024;-52
2021/01/08 02:05:19;;;;;;;2.47;2.25;;;19.60;52.40;;;;;;5076321;28;20037;-52
2021/01/08 02:07:59;;;;;;;2.60;2.40;;;19.60;52.30;;;;;;5083974;28;20024;-52
2021/01/08 02:10:28;;;;;;;4.43;2.67;;;19.60;52.40;;;;;;5060134;28;20029;-52
2021/01/08 02:12:59;;;;;;;2.45;2.17;;;19.60;52.40;;;;;;5084866;28;20020;-53
2021/01/08 02:15:27;;;;;;;3.35;2.03;;;19.60;52.60;;;;;;5077401;28;20028;-52
2021/01/08 02:17:53;;;;;;;2.42;2.13;;;19.50;52.50;;;;;;5079072;28;20035;-53
2021/01/08 02:20:21;;;;;;;3.45;2.00;;;19.60;52.50;;;;;;5081845;28;20048;-53
2021/01/08 02:22:52;;;;;;;2.35;2.08;;;19.60;52.50;;;;;;5076350;28;20031;-52
2021/01/08 02:25:28;;;;;;;2.15;1.83;;;19.50;52.50;;;;;;5077911;28;20039;-53
2021/01/08 02:28:06;;;;;;;2.13;1.75;;;19.50;52.50;;;;;;5083545;28;20039;-52
2021/01/08 02:30:33;;;;;;;2.00;1.90;;;19.50;52.50;;;;;;5086360;28;20356;-51
2021/01/08 02:33:01;;;;;;;3.20;1.88;;;19.50;52.50;;;;;;5085328;28;20031;-52
2021/01/08 02:35:31;;;;;;;2.67;1.90;;;19.50;52.50;;;;;;5081802;28;20063;-52
2021/01/08 02:37:58;;;;;;;3.08;2.13;;;19.50;53.20;;;;;;5083938;28;20120;-52
2021/01/08 02:40:25;;;;;;;2.22;1.77;;;19.50;52.60;;;;;;5085399;28;20091;-52
2021/01/08 02:42:59;;;;;;;1.75;1.65;;;19.50;52.60;;;;;;5083086;28;20119;-52
2021/01/08 02:45:25;;;;;;;2.17;1.55;;;19.50;52.60;;;;;;5077511;28;20043;-53
2021/01/08 02:47:50;;;;;;;2.33;1.30;;;19.50;52.60;;;;;;5080185;28;20039;-52
2021/01/08 02:50:17;;;;;;;1.95;1.20;;;19.50;52.60;;;;;;5079329;28;20032;-53
2021/01/08 02:52:47;;;;;;;1.40;1.30;;;19.50;52.60;;;;;;5082161;28;20031;-53
2021/01/08 02:55:19;;;;;;;1.55;1.23;;;19.50;52.60;;;;;;5086052;28;20027;-52
2021/01/08 02:57:45;;;;;;;1.48;1.25;;;19.40;52.60;;;;;;5082542;28;20047;-53
2021/01/08 03:00:13;;;;;;;1.30;1.20;;;19.50;52.60;;;;;;5084043;28;20116;-53
2021/01/08 03:02:39;;;;;;;1.60;1.38;;;19.50;52.70;;;;;;5080360;28;20020;-53
2021/01/08 03:05:05;;;;;;;1.50;1.27;;;19.50;52.70;;;;;;5082957;28;20390;-53
2021/01/08 03:07:32;;;;;;;1.30;1.20;;;19.40;52.60;;;;;;5086278;28;20086;-53
2021/01/08 03:09:59;;;;;;;1.38;1.13;;;19.40;52.60;;;;;;5082013;28;20036;-50
2021/01/08 03:12:29;;;;;;;1.08;0.98;;;19.50;52.70;;;;;;5058210;28;20013;-53
2021/01/08 03:14:56;;;;;;;2.70;1.43;;;19.40;52.70;;;;;;5061243;28;20021;-53
2021/01/08 03:17:22;;;;;;;1.42;1.33;;;19.40;52.70;;;;;;5078535;28;20277;-53
2021/01/08 03:19:48;;;;;;;2.10;1.20;;;19.40;52.70;;;;;;5077072;28;20571;-52
2021/01/08 03:22:14;;;;;;;0.80;0.80;;;19.40;53.00;;;;;;5082251;28;20050;-53
2021/01/08 03:24:40;;;;;;;2.25;1.10;;;19.40;52.70;;;;;;5080826;28;20359;-53
2021/01/08 03:27:06;;;;;;;1.27;1.17;;;19.40;52.70;;;;;;5087458;28;20032;-52
2021/01/08 03:29:32;;;;;;;1.20;0.95;;;19.40;52.70;;;;;;5075261;28;20035;-53
2021/01/08 03:31:58;;;;;;;1.08;0.98;;;19.40;52.70;;;;;;5084140;28;20039;-52
2021/01/08 03:34:24;;;;;;;1.33;0.98;;;19.40;52.70;;;;;;5076856;28;20021;-53
2021/01/08 03:36:50;;;;;;;1.42;0.80;;;19.40;52.70;;;;;;5080891;28;20024;-52
2021/01/08 03:39:16;;;;;;;1.10;1.00;;;19.40;52.70;;;;;;5080000;28;20025;-53
2021/01/08 03:41:42;;;;;;;0.98;0.88;;;19.40;52.80;;;;;;5070115;28;20031;-53
2021/01/08 03:44:08;;;;;;;0.80;0.80;;;19.40;52.70;;;;;;5080284;28;20046;-52
2021/01/08 03:46:36;;;;;;;0.90;0.80;;;19.40;52.70;;;;;;5080173;28;20070;-53
2021/01/08 03:49:06;;;;;;;2.25;0.65;;;19.40;52.80;;;;;;5087152;28;20389;-52
2021/01/08 03:51:33;;;;;;;0.93;0.90;;;19.40;52.80;;;;;;5083942;28;20051;-52
2021/01/08 03:53:59;;;;;;;2.03;1.35;;;19.40;52.80;;;;;;5085342;28;20055;-52
2021/01/08 03:56:25;;;;;;;1.23;0.98;;;19.40;52.80;;;;;;5088249;28;20062;-52
2021/01/08 03:58:51;;;;;;;0.77;0.70;;;19.40;52.80;;;;;;5087664;28;20021;-53
2021/01/08 04:01:17;;;;;;;0.98;0.80;;;19.40;52.80;;;;;;5082047;28;20054;-52
2021/01/08 04:03:43;;;;;;;1.85;0.73;;;19.40;52.80;;;;;;5079819;28;20484;-52
2021/01/08 04:06:10;;;;;;;0.88;0.73;;;19.40;52.80;;;;;;5084573;28;20405;-52
2021/01/08 04:08:36;;;;;;;0.70;0.70;;;19.40;52.90;;;;;;5082954;28;20032;-53
2021/01/08 04:11:02;;;;;;;0.95;0.82;;;19.40;52.90;;;;;;5082893;28;20044;-52
2021/01/08 04:13:28;;;;;;;0.70;0.70;;;19.40;52.90;;;;;;5082512;28;20028;-53
2021/01/08 04:15:54;;;;;;;1.00;0.80;;;19.40;52.90;;;;;;5079791;28;20040;-53
2021/01/08 04:18:20;;;;;;;0.90;0.70;;;19.30;52.90;;;;;;5081048;28;20054;-52
2021/01/08 04:20:46;;;;;;;0.63;0.63;;;19.40;53.00;;;;;;5082718;28;20111;-53
2021/01/08 04:23:12;;;;;;;2.38;0.70;;;19.40;53.00;;;;;;5086307;28;20099;-53
2021/01/08 04:25:38;;;;;;;1.65;0.85;;;19.30;53.10;;;;;;5081922;28;20099;-53
2021/01/08 04:28:04;;;;;;;1.08;0.60;;;19.40;53.10;;;;;;5078373;28;20031;-53
2021/01/08 04:30:30;;;;;;;0.90;0.73;;;19.30;53.00;;;;;;5089213;28;20082;-53
2021/01/08 04:32:56;;;;;;;1.50;0.50;;;19.30;53.10;;;;;;5087247;28;20028;-52
2021/01/08 04:35:22;;;;;;;1.05;0.68;;;19.30;53.00;;;;;;5085537;28;20072;-53
2021/01/08 04:37:48;;;;;;;1.00;0.55;;;19.30;53.00;;;;;;5086009;28;20528;-53
2021/01/08 04:40:14;;;;;;;0.80;0.77;;;19.30;53.00;;;;;;5088391;28;20028;-53
2021/01/08 04:42:40;;;;;;;1.10;0.70;;;19.30;53.10;;;;;;5085278;28;20036;-53
2021/01/08 04:45:07;;;;;;;1.73;0.60;;;19.30;53.00;;;;;;5086984;28;20470;-53
2021/01/08 04:47:34;;;;;;;0.85;0.70;;;19.30;53.00;;;;;;5084392;28;20032;-52
2021/01/08 04:50:04;;;;;;;0.90;0.75;;;19.30;53.00;;;;;;5085013;28;20032;-53
2021/01/08 04:52:32;;;;;;;1.15;0.88;;;19.30;53.10;;;;;;5081625;28;20031;-52
2021/01/08 04:54:59;;;;;;;0.70;0.70;;;19.30;53.10;;;;;;5086016;28;20021;-53
2021/01/08 04:57:27;;;;;;;3.50;0.60;;;19.30;53.10;;;;;;5091175;28;20028;-52
2021/01/08 04:59:54;;;;;;;0.50;0.50;;;19.30;53.20;;;;;;5083077;28;20067;-53
2021/01/08 05:02:20;;;;;;;0.95;0.68;;;19.30;53.20;;;;;;5084290;28;20031;-52
2021/01/08 05:04:46;;;;;;;1.23;0.60;;;19.30;53.20;;;;;;5084793;28;20025;-52
2021/01/08 05:07:12;;;;;;;0.88;0.57;;;19.30;53.20;;;;;;5079338;28;20381;-52
2021/01/08 05:09:38;;;;;;;1.42;0.65;;;19.30;53.20;;;;;;5086280;28;20028;-52
2021/01/08 05:12:05;;;;;;;1.05;0.60;;;19.30;53.30;;;;;;5066071;28;20401;-52
2021/01/08 05:14:32;;;;;;;0.77;0.55;;;19.30;53.40;;;;;;5086098;28;20481;-52
2021/01/08 05:16:58;;;;;;;0.77;0.73;;;19.30;53.40;;;;;;5076244;28;20052;-52
2021/01/08 05:19:25;;;;;;;1.27;0.80;;;19.30;53.40;;;;;;5081754;28;20048;-53
2021/01/08 05:21:52;;;;;;;0.60;0.60;;;19.30;53.40;;;;;;5088460;28;20075;-53
2021/01/08 05:24:20;;;;;;;0.80;0.70;;;19.30;53.40;;;;;;5084647;28;20100;-53
2021/01/08 05:26:46;;;;;;;1.33;0.85;;;19.30;53.40;;;;;;5080963;28;20028;-53
2021/01/08 05:29:12;;;;;;;0.95;0.70;;;19.30;53.40;;;;;;5088245;28;20539;-53
2021/01/08 05:31:39;;;;;;;0.65;0.63;;;19.30;53.40;;;;;;5081915;28;20048;-51
2021/01/08 05:34:06;;;;;;;0.80;0.70;;;19.20;53.40;;;;;;5082500;28;20360;-53
2021/01/08 05:36:32;;;;;;;0.90;0.60;;;19.30;53.50;;;;;;5083413;28;20528;-53
2021/01/08 05:39:00;;;;;;;1.67;0.90;;;19.30;53.50;;;;;;5084430;28;20374;-53
2021/01/08 05:41:28;;;;;;;1.08;0.85;;;19.20;53.70;;;;;;5080398;28;20040;-52
2021/01/08 05:43:56;;;;;;;4.88;1.45;;;19.30;53.90;;;;;;5076444;28;20382;-51
2021/01/08 05:46:37;;;;;;;3.15;1.58;;;19.30;54.10;;;;;;5083185;28;20035;-51
2021/01/08 05:49:07;;;;;;;4.13;1.35;;;19.20;54.40;;;;;;5066571;28;20083;-51
2021/01/08 05:51:37;;;;;;;;;;;19.20;54.40;;;;;;5084068;28;20036;-51
2021/01/08 05:54:04;;;;;;;5.07;1.23;;;19.20;54.10;;;;;;5083291;28;20366;-51
2021/01/08 05:56:40;;;;;;;7.05;1.50;;;19.30;54.30;;;;;;5070425;28;20433;-51
2021/01/08 05:59:07;;;;;;;7.78;2.10;;;19.20;54.80;;;;;;5079518;28;20430;-51
2021/01/08 06:01:35;;;;;;;8.73;2.05;;;19.20;54.60;;;;;;5084646;28;20037;-51
2021/01/08 06:04:02;;;;;;;10.48;1.95;;;19.20;54.80;;;;;;5083440;28;20033;-51
2021/01/08 06:06:42;;;;;;;11.10;2.45;;;19.20;54.90;;;;;;5081613;28;20095;-51
2021/01/08 06:09:13;;;;;;;11.73;1.90;;;19.20;55.30;;;;;;5078421;28;20094;-50
2021/01/08 06:11:40;;;;;;;11.13;2.42;;;19.20;55.30;;;;;;5102913;28;20034;-51
2021/01/08 06:14:07;;;;;;;12.68;2.33;;;19.10;55.20;;;;;;5086058;28;20069;-53
2021/01/08 06:16:39;;;;;;;14.93;2.95;;;19.10;55.20;;;;;;5074576;28;20020;-52
2021/01/08 06:19:06;;;;;;;6.68;1.70;;;19.20;55.50;;;;;;5065247;28;20048;-53
2021/01/08 06:21:45;;;;;;;15.43;2.75;;;19.10;55.40;;;;;;5086078;28;20050;-52
2021/01/08 06:24:11;;;;;;;15.73;2.63;;;19.10;55.60;;;;;;5083339;28;20040;-51
2021/01/08 06:26:38;;;;;;;10.40;2.10;;;19.10;55.40;;;;;;5090684;28;20016;-52
2021/01/08 06:29:18;;;;;;;8.77;2.25;;;19.10;55.50;;;;;;5085410;28;20024;-51
2021/01/08 06:31:56;;;;;;;12.85;2.92;;;19.10;55.60;;;;;;5085670;28;20036;-51
2021/01/08 06:34:26;;;;;;;11.77;2.33;;;19.10;55.70;;;;;;5081883;28;20019;-51
2021/01/08 06:37:06;;;;;;;15.30;3.47;;;19.10;55.50;;;;;;5085224;28;20020;-52
2021/01/08 06:39:34;;;;;;;;;;;19.10;55.70;;;;;;5082066;28;20031;-51
2021/01/08 06:42:01;;;;;;;17.48;5.68;;;19.10;55.30;;;;;;5076198;28;19909;-51
2021/01/08 06:44:29;;;;;;;17.73;7.55;;;19.10;55.30;;;;;;5077722;28;20108;-51
2021/01/08 06:46:57;;;;;;;19.63;9.73;;;19.10;55.30;;;;;;5087555;28;20031;-51
2021/01/08 06:49:24;;;;;;;19.80;9.32;;;19.10;55.40;;;;;;5090985;28;20035;-50
2021/01/08 06:51:51;;;;;;;18.13;8.25;;;19.10;55.50;;;;;;5063513;28;20481;-50
2021/01/08 06:54:17;;;;;;;20.90;13.13;;;19.10;55.50;;;;;;5066638;28;20037;-50
2021/01/08 06:56:45;;;;;;;43.70;38.20;;;19.10;55.60;;;;;;5082603;28;20087;-50
2021/01/08 06:59:13;;;;;;;69.47;58.35;;;19.00;55.60;;;;;;5083625;28;20475;-50
2021/01/08 07:02:13;;;;;;;73.07;63.20;;;19.00;55.70;;;;;;5082425;28;20047;-50
2021/01/08 07:04:39;;;;;;;68.32;58.35;;;19.00;55.80;;;;;;5081776;28;20039;-50
2021/01/08 07:07:11;;;;;;;71.35;59.22;;;19.10;55.80;;;;;;5084310;28;20074;-50
2021/01/08 07:09:39;;;;;;;65.03;55.92;;;19.00;55.80;;;;;;5066236;28;20040;-51
2021/01/08 07:12:07;;;;;;;68.68;54.25;;;19.10;56.00;;;;;;5076263;28;20031;-50
2021/01/08 07:14:37;;;;;;;58.17;49.67;;;19.10;56.00;;;;;;5060083;28;20024;-50
2021/01/08 07:17:12;;;;;;;56.92;48.78;;;19.00;56.10;;;;;;5079443;28;20454;-52
2021/01/08 07:19:45;;;;;;;82.60;72.35;;;19.10;56.20;;;;;;5077398;28;20075;-51
2021/01/08 07:22:22;;;;;;;145.77;129.90;;;19.10;56.70;;;;;;5082986;28;20672;-49
2021/01/08 07:24:49;;;;;;;164.43;146.60;;;19.10;56.20;;;;;;5084426;28;20028;-51
2021/01/08 07:27:16;;;;;;;160.65;143.10;;;19.10;56.00;;;;;;5082023;28;20032;-50
2021/01/08 07:29:56;;;;;;;154.30;137.43;;;19.10;56.00;;;;;;5089386;28;20114;-50
2021/01/08 07:32:41;;;;;;;153.20;134.80;;;19.10;56.20;;;;;;5069240;28;20049;-50
2021/01/08 07:35:22;;;;;;;147.95;131.90;;;19.10;56.20;;;;;;5083998;28;20070;-50
2021/01/08 07:37:55;;;;;;;135.18;120.38;;;19.10;56.20;;;;;;5084353;28;20028;-51
2021/01/08 07:40:21;;;;;;;128.25;114.20;;;19.10;56.20;;;;;;5078716;28;20063;-50
2021/01/08 07:43:04;;;;;;;125.18;111.53;;;19.20;56.10;;;;;;5085764;28;20024;-51
2021/01/08 07:45:53;;;;;;;98.72;88.05;;;19.10;56.20;;;;;;5081151;28;20450;-51
2021/01/08 07:48:26;;;;;;;100.88;89.55;;;19.20;56.20;;;;;;5083387;28;20059;-52
2021/01/08 07:51:06;;;;;;;111.43;97.25;;;19.20;56.10;;;;;;5079084;28;20484;-51
2021/01/08 07:53:45;;;;;;;;;;;19.20;56.20;;;;;;5063714;28;20417;-49
2021/01/08 07:56:25;;;;;;;93.72;81.55;;;19.20;55.90;;;;;;5076831;28;19919;-49
2021/01/08 07:59:06;;;;;;;88.22;76.35;;;19.20;56.00;;;;;;5084076;28;20024;-49
2021/01/08 08:01:33;;;;;;;76.70;66.90;;;19.20;56.10;;;;;;5081600;28;20033;-52
2021/01/08 08:04:09;;;;;;;74.50;64.28;;;19.20;55.90;;;;;;5084923;28;20363;-50
2021/01/08 08:06:39;;;;;;;76.60;63.60;;;19.20;56.10;;;;;;5065574;28;20064;-52
2021/01/08 08:09:07;;;;;;;113.45;99.30;;;19.20;56.10;;;;;;5078420;28;20041;-52
2021/01/08 08:11:35;;;;;;;94.97;84.65;;;19.20;56.10;;;;;;5057886;28;20028;-52
2021/01/08 08:14:03;;;;;;;112.13;97.50;;;19.20;56.00;;;;;;5073233;28;20034;-51
2021/01/08 08:16:36;;;;;;;102.47;89.85;;;19.20;56.10;;;;;;5060892;28;20028;-51
2021/01/08 08:19:03;;;;;;;105.43;85.32;;;19.20;56.10;;;;;;5079609;28;20036;-52
2021/01/08 08:21:30;;;;;;;90.78;78.18;;;19.20;56.10;;;;;;5083069;28;20097;-51
2021/01/08 08:23:57;;;;;;;98.32;84.93;;;19.20;56.10;;;;;;5086188;28;20031;-52
2021/01/08 08:26:23;;;;;;;103.93;85.75;;;19.20;56.10;;;;;;5077418;28;20116;-52
2021/01/08 08:29:06;;;;;;;98.53;80.53;;;19.20;56.20;;;;;;5077739;28;20052;-52
2021/01/08 08:31:37;;;;;;;95.60;79.22;;;19.20;56.20;;;;;;5083472;28;20036;-52
2021/01/08 08:34:05;;;;;;;90.10;76.35;;;19.30;56.20;;;;;;5084715;28;20494;-50
2021/01/08 08:36:32;;;;;;;80.25;71.50;;;19.30;56.10;;;;;;5087297;28;20031;-51
2021/01/08 08:39:03;;;;;;;79.80;67.50;;;19.30;56.10;;;;;;5069094;28;20036;-51
2021/01/08 08:41:30;;;;;;;90.05;76.03;;;19.30;56.10;;;;;;5074286;28;20097;-53
2021/01/08 08:44:10;;;;;;;105.72;87.57;;;19.30;56.00;;;;;;5068453;28;20050;-51
2021/01/08 08:46:45;;;;;;;88.93;74.82;;;19.30;56.10;;;;;;5086652;28;20041;-52
2021/01/08 08:49:13;;;;;;;97.38;81.82;;;19.30;56.30;;;;;;5069332;28;20028;-52
2021/01/08 08:51:44;;;;;;;85.93;72.65;;;19.30;56.30;;;;;;5069703;28;20016;-51
2021/01/08 08:54:11;;;;;;;87.38;73.13;;;19.30;56.40;;;;;;5073796;28;20056;-51
2021/01/08 08:56:47;;;;;;;84.35;70.60;;;19.30;56.30;;;;;;5082361;28;20055;-52
2021/01/08 08:59:13;;;;;;;89.43;75.40;;;19.30;56.50;;;;;;5080756;28;20020;-52
2021/01/08 09:01:43;;;;;;;81.53;70.55;;;19.30;56.40;;;;;;5064530;28;20057;-51
2021/01/08 09:04:10;;;;;;;90.85;69.85;;;19.40;56.50;;;;;;5084684;28;20027;-51
2021/01/08 09:06:38;;;;;;;69.32;58.88;;;19.40;56.50;;;;;;5085792;28;20031;-53
2021/01/08 09:09:14;;;;;;;64.65;56.40;;;19.40;56.40;;;;;;5064473;28;20031;-53
2021/01/08 09:12:07;;;;;;;66.63;55.70;;;19.50;56.50;;;;;;5089764;28;20031;-53
2021/01/08 09:14:36;;;;;;;60.63;46.38;;;19.50;56.30;;;;;;5063088;28;20378;-52
2021/01/08 09:17:09;;;;;;;54.75;42.38;;;19.50;56.10;;;;;;5085098;28;20024;-53
2021/01/08 09:19:52;;;;;;;57.70;39.88;;;19.60;56.00;;;;;;5068388;28;20055;-51
2021/01/08 09:22:18;;;;;;;46.20;36.45;;;19.60;55.90;;;;;;5088032;28;20020;-51
2021/01/08 09:24:48;;;;;;;41.00;31.40;;;19.60;55.70;;;;;;5086689;28;20035;-52
2021/01/08 09:27:14;;;;;;;44.28;30.63;;;19.60;55.50;;;;;;5070469;28;20154;-52
2021/01/08 09:29:40;;;;;;;41.50;29.13;;;19.70;55.50;;;;;;5060822;28;20033;-50
2021/01/08 09:32:07;;;;;;;41.70;32.53;;;19.60;55.30;;;;;;5087967;28;20051;-51
2021/01/08 09:34:35;;;;;;;37.00;29.42;;;19.70;55.20;;;;;;5063753;28;20032;-52
2021/01/08 09:37:22;;;;;;;45.42;29.70;;;19.70;55.20;;;;;;5081963;28;20108;-51
2021/01/08 09:39:49;;;;;;;33.60;24.90;;;19.70;55.20;;;;;;5046092;28;20032;-50
2021/01/08 09:42:16;;;;;;;29.27;21.73;;;19.70;55.00;;;;;;5080387;28;20021;-53
2021/01/08 09:44:42;;;;;;;30.13;18.65;;;19.70;55.00;;;;;;5075330;28;20032;-53
2021/01/08 09:47:13;;;;;;;28.90;16.88;;;19.70;54.90;;;;;;5075908;28;20033;-52
2021/01/08 09:49:41;;;;;;;26.05;14.75;;;19.70;54.90;;;;;;5080846;28;20082;-53
2021/01/08 09:52:08;;;;;;;21.58;14.00;;;19.70;54.90;;;;;;5077778;28;20486;-52
2021/01/08 09:54:49;;;;;;;30.27;14.88;;;19.70;54.90;;;;;;5082251;28;20020;-51
2021/01/08 09:57:35;;;;;;;30.42;15.98;;;19.70;54.90;;;;;;5082696;28;20482;-52
2021/01/08 10:00:08;;;;;;;38.17;24.38;;;19.70;54.80;;;;;;5083220;28;20039;-53
2021/01/08 10:02:46;;;;;;;43.60;29.88;;;19.70;54.60;;;;;;5080137;28;20036;-51
2021/01/08 10:05:20;;;;;;;43.58;31.48;;;19.70;54.60;;;;;;5082853;28;20106;-53
2021/01/08 10:07:48;;;;;;;40.90;29.30;;;19.70;54.70;;;;;;5083753;28;20055;-51
2021/01/08 10:10:35;;;;;;;35.65;26.75;;;19.70;54.70;;;;;;5089833;28;20038;-54
2021/01/08 10:13:01;;;;;;;36.53;21.05;;;19.70;54.70;;;;;;5068691;28;20081;-54
2021/01/08 10:15:37;;;;;;;43.15;32.08;;;19.70;54.80;;;;;;5070929;28;20085;-53
2021/01/08 10:18:22;;;;;;;51.75;37.72;;;20.20;54.90;;;;;;5086571;28;20045;-56
2021/01/08 10:20:53;;;;;;;46.13;30.85;;;19.70;55.30;;;;;;5088070;28;20038;-51
2021/01/08 10:23:24;;;;;;;51.10;30.48;;;19.70;55.30;;;;;;5080553;28;20020;-53
2021/01/08 10:26:08;;;;;;;47.05;36.53;;;19.70;55.50;;;;;;5080194;28;20025;-54
2021/01/08 10:28:48;;;;;;;55.92;36.20;;;19.70;55.60;;;;;;5067736;28;20052;-54
2021/01/08 10:31:15;;;;;;;51.80;36.35;;;19.70;55.70;;;;;;5080357;28;20028;-54
2021/01/08 10:33:42;;;;;;;43.65;31.27;;;19.70;55.70;;;;;;5086449;28;20024;-57
2021/01/08 10:36:08;;;;;;;53.50;31.52;;;19.70;55.80;;;;;;5062273;28;20036;-55
2021/01/08 10:38:34;;;;;;;42.08;25.55;;;19.70;55.90;;;;;;5081474;28;20024;-54
2021/01/08 10:41:00;;;;;;;34.40;23.48;;;19.80;56.00;;;;;;5082887;28;20024;-53
2021/01/08 10:43:31;;;;;;;39.53;24.70;;;19.80;56.00;;;;;;5081917;28;20027;-53
2021/01/08 10:45:57;;;;;;;45.38;32.72;;;19.80;56.00;;;;;;5061674;28;20036;-54
2021/01/08 10:48:23;;;;;;;48.47;35.97;;;19.80;55.90;;;;;;5084164;28;20028;-55
2021/01/08 10:50:50;;;;;;;50.42;34.38;;;19.80;55.80;;;;;;5078960;28;20069;-53
2021/01/08 10:53:16;;;;;;;56.58;34.67;;;19.90;55.80;;;;;;5080558;28;20107;-53
2021/01/08 10:55:45;;;;;;;62.30;34.75;;;19.90;55.70;;;;;;5090672;28;20028;-53
2021/01/08 10:58:12;;;;;;;47.00;31.37;;;19.90;55.60;;;;;;5085781;28;20069;-52
2021/01/08 11:00:38;;;;;;;50.67;32.58;;;19.90;55.60;;;;;;5086136;28;20032;-52
2021/01/08 11:03:04;;;;;;;42.88;27.48;;;20.00;55.60;;;;;;5084866;28;20365;-53
2021/01/08 11:05:30;;;;;;;43.17;29.45;;;20.00;55.60;;;;;;5061221;28;20119;-54
2021/01/08 11:07:56;;;;;;;66.20;48.92;;;20.10;55.60;;;;;;5088635;28;20043;-55
2021/01/08 11:10:22;;;;;;;62.88;46.85;;;20.10;55.40;;;;;;5075691;28;20482;-55
2021/01/08 11:12:48;;;;;;;57.88;43.25;;;20.10;55.40;;;;;;5078953;28;20485;-55
2021/01/08 11:15:14;;;;;;;58.88;41.58;;;20.20;55.40;;;;;;5080936;28;20457;-50
2021/01/08 11:17:40;;;;;;;49.20;36.90;;;20.20;55.30;;;;;;5081571;28;20458;-49
2021/01/08 11:20:09;;;;;;;49.10;35.88;;;20.10;55.20;;;;;;5069335;28;20128;-49
2021/01/08 11:22:35;;;;;;;47.03;31.52;;;20.20;55.20;;;;;;5084159;28;20031;-48
2021/01/08 11:25:01;;;;;;;45.13;32.55;;;20.20;55.10;;;;;;5080403;28;20038;-49
2021/01/08 11:27:28;;;;;;;45.30;30.65;;;20.20;55.10;;;;;;5084570;28;20032;-55
2021/01/08 11:29:54;;;;;;;38.60;28.08;;;20.20;55.10;;;;;;5076965;28;20020;-54
2021/01/08 11:32:20;;;;;;;47.42;28.67;;;20.20;55.10;;;;;;5085934;28;20024;-56
2021/01/08 11:34:46;;;;;;;51.13;35.30;;;20.20;55.10;;;;;;5085226;28;20032;-53
2021/01/08 11:37:12;;;;;;;48.83;35.10;;;20.20;55.10;;;;;;5084142;28;20036;-55
2021/01/08 11:39:38;;;;;;;47.58;28.73;;;20.20;55.00;;;;;;5046468;28;20028;-57
2021/01/08 11:42:04;;;;;;;38.70;23.55;;;20.20;55.00;;;;;;5083193;28;20468;-52
2021/01/08 11:44:31;;;;;;;37.78;27.63;;;20.20;54.80;;;;;;5086371;28;20036;-52
2021/01/08 11:46:57;;;;;;;38.50;27.65;;;20.20;54.70;;;;;;5086179;28;20101;-52
2021/01/08 11:49:23;;;;;;;30.00;21.38;;;20.20;54.60;;;;;;5079455;28;20040;-52
2021/01/08 11:51:49;;;;;;;25.30;18.88;;;20.20;54.50;;;;;;5077499;28;20031;-52
2021/01/08 11:54:15;;;;;;;27.52;14.48;;;20.20;54.40;;;;;;5081356;28;20024;-52
2021/01/08 11:56:41;;;;;;;24.27;13.30;;;20.20;54.40;;;;;;5080209;28;20040;-53
2021/01/08 11:59:08;;;;;;;26.85;11.80;;;20.20;54.40;;;;;;5062595;28;20024;-52
2021/01/08 12:01:34;;;;;;;32.95;13.45;;;20.10;54.40;;;;;;5079316;28;20135;-52
2021/01/08 12:04:01;;;;;;;24.23;11.90;;;20.10;54.50;;;;;;5081197;28;20127;-53
2021/01/08 12:06:32;;;;;;;22.08;10.27;;;20.10;54.60;;;;;;5083072;28;20024;-52
2021/01/08 12:08:59;;;;;;;28.52;12.85;;;20.10;54.60;;;;;;5076634;28;20032;-52
2021/01/08 12:11:26;;;;;;;29.85;13.25;;;20.10;54.60;;;;;;5070894;28;20466;-53
2021/01/08 12:13:53;;;;;;;33.10;17.33;;;20.10;54.60;;;;;;5084385;28;20032;-53
2021/01/08 12:16:28;;;;;;;40.53;27.33;;;20.10;54.60;;;;;;5088923;28;20178;-53
2021/01/08 12:18:56;;;;;;;42.75;28.60;;;20.10;54.70;;;;;;5084007;28;20044;-53
2021/01/08 12:21:25;;;;;;;32.53;24.13;;;20.20;54.80;;;;;;5051310;28;20046;-54
2021/01/08 12:23:52;;;;;;;45.25;26.50;;;20.10;54.80;;;;;;5083363;28;20024;-52
2021/01/08 12:26:19;;;;;;;33.42;23.80;;;20.20;54.90;;;;;;5066321;28;20044;-52
2021/01/08 12:28:48;;;;;;;27.48;21.55;;;20.20;55.00;;;;;;5083865;28;20024;-52
2021/01/08 12:31:21;;;;;;;36.58;21.25;;;20.20;55.00;;;;;;5082281;28;20360;-52
2021/01/08 12:33:47;;;;;;;31.08;19.55;;;20.30;55.00;;;;;;5077647;28;20050;-52
2021/01/08 12:36:13;;;;;;;24.17;16.73;;;20.30;55.00;;;;;;5083277;28;20478;-53
2021/01/08 12:38:39;;;;;;;24.48;16.95;;;20.30;55.00;;;;;;5084386;28;20035;-53
2021/01/08 12:41:05;;;;;;;26.65;14.85;;;20.30;55.00;;;;;;5090033;28;20454;-53
2021/01/08 12:43:31;;;;;;;21.77;15.07;;;20.30;55.00;;;;;;5083580;28;20502;-53
2021/01/08 12:45:57;;;;;;;23.95;13.82;;;20.30;54.90;;;;;;5087880;28;20034;-53
2021/01/08 12:48:23;;;;;;;28.17;15.63;;;20.30;55.00;;;;;;5071116;28;20054;-52